Time;durP1;ratioP1;P1;durP2;ratioP2;P2;SDS_P1;SDS_P2;PMS_P1;PMS_P2;Temp;Humidity;BMP_temperature;BMP_pressure;BME280_temperature;BME280_humidity;BME280_pressure;Samples;Min_cycle;Max_cycle;Signal;HPM_P1;HPM_P2
2022/06/27 00:02:24;;;;;;;;;;;;;;;26.60;45.05;101005.44;105159;1303;61288;-80
2022/06/27 00:04:49;;;;;;;;;;;;;;;26.60;45.04;101009.20;105139;1303;61281;-80
2022/06/27 00:07:15;;;;;;;;;;;;;;;26.60;45.22;101006.14;105202;1302;61297;-80
2022/06/27 00:09:41;;;;;;;;;;;;;;;26.60;44.95;101007.00;105183;1302;61553;-80
2022/06/27 00:12:08;;;;;;;;;;;;;;;26.60;45.11;101010.27;105198;1302;61270;-80
2022/06/27 00:14:34;;;;;;;;;;;;;;;26.60;45.08;101010.13;105157;1302;73953;-80
2022/06/27 00:16:59;;;;;;;;;;;;;;;26.59;45.09;101011.11;105102;1303;61441;-80
2022/06/27 00:19:24;;;;;;;;;;;;;;;26.59;45.15;101010.16;105119;1302;61321;-80
2022/06/27 00:21:50;;;;;;;;;;;;;;;26.59;45.20;101014.86;105141;1303;61259;-80
2022/06/27 00:24:15;;;;;;;;;;;;;;;26.59;45.09;101011.82;105266;1303;61277;-80
2022/06/27 00:26:41;;;;;;;;;;;;;;;26.59;45.17;101011.28;105189;1301;75054;-80
2022/06/27 00:29:07;;;;;;;;;;;;;;;26.58;45.40;101008.63;104965;1303;61287;-80
2022/06/27 00:31:32;;;;;;;;;;;;;;;26.58;45.42;101004.64;104996;1303;61456;-80
2022/06/27 00:33:58;;;;;;;;;;;;;;;26.58;45.22;101000.88;105178;1303;61983;-81
2022/06/27 00:36:23;;;;;;;;;;;;;;;26.58;45.35;101003.40;105215;1303;61307;-80
2022/06/27 00:38:49;;;;;;;;;;;;;;;26.58;45.22;101003.58;105234;1303;72538;-80
2022/06/27 00:41:15;;;;;;;;;;;;;;;26.58;45.40;101005.95;105253;1301;61281;-80
2022/06/27 00:43:43;;;;;;;;;;;;;;;26.58;45.38;101002.89;105315;1303;61272;-81
2022/06/27 00:46:09;;;;;;;;;;;;;;;26.58;45.47;100999.64;105159;1303;61280;-80
2022/06/27 00:48:35;;;;;;;;;;;;;;;26.57;45.27;100999.66;104912;1303;62140;-80
2022/06/27 00:51:00;;;;;;;;;;;;;;;26.57;45.29;100997.51;105016;1302;61673;-80
2022/06/27 00:53:26;;;;;;;;;;;;;;;26.57;45.25;100995.70;105167;1302;61297;-80
2022/06/27 00:55:51;;;;;;;;;;;;;;;26.57;45.31;100993.73;105215;1303;61265;-80
2022/06/27 00:58:16;;;;;;;;;;;;;;;26.57;45.49;100996.98;105165;1303;61847;-80
2022/06/27 01:00:42;;;;;;;;;;;;;;;26.57;45.43;100993.97;105180;1303;61438;-80
2022/06/27 01:03:07;;;;;;;;;;;;;;;26.56;45.38;100996.16;105224;1301;61387;-80
2022/06/27 01:05:33;;;;;;;;;;;;;;;26.56;45.44;100993.81;105242;1300;61346;-80
2022/06/27 01:07:58;;;;;;;;;;;;;;;26.57;45.61;100996.68;105184;1303;61253;-80
2022/06/27 01:10:24;;;;;;;;;;;;;;;26.56;45.40;100994.72;104919;1303;61288;-80
2022/06/27 01:12:49;;;;;;;;;;;;;;;26.56;45.58;100995.79;104974;1301;61245;-80
2022/06/27 01:15:15;;;;;;;;;;;;;;;26.56;45.72;100993.47;105176;1303;61256;-80
2022/06/27 01:17:40;;;;;;;;;;;;;;;26.56;45.53;100992.05;105169;1301;61422;-80
2022/06/27 01:20:06;;;;;;;;;;;;;;;26.56;45.62;100991.73;105256;1303;61246;-80
2022/06/27 01:22:32;;;;;;;;;;;;;;;26.56;45.56;100995.29;105188;1303;61269;-80
2022/06/27 01:24:58;;;;;;;;;;;;;;;26.56;45.55;100994.77;105001;1303;61670;-80
2022/06/27 01:27:23;;;;;;;;;;;;;;;26.56;45.79;100995.31;104931;1303;61419;-80
2022/06/27 01:29:49;;;;;;;;;;;;;;;26.55;45.52;100994.63;105254;1303;61425;-80
2022/06/27 01:32:14;;;;;;;;;;;;;;;26.55;45.57;100991.02;105170;1302;61473;-80
2022/06/27 01:34:40;;;;;;;;;;;;;;;26.55;45.81;100991.41;105200;1302;61258;-80
2022/06/27 01:37:05;;;;;;;;;;;;;;;26.55;45.65;100989.41;105133;1302;72819;-80
2022/06/27 01:39:31;;;;;;;;;;;;;;;26.55;45.77;100989.80;105155;1303;62460;-80
2022/06/27 01:41:58;;;;;;;;;;;;;;;26.55;45.62;100984.53;105163;1301;61169;-80
2022/06/27 01:44:28;;;;;;;;;;;;;;;26.55;45.59;100987.44;105187;1303;61386;-80
2022/06/27 01:47:00;;;;;;;;;;;;;;;26.55;45.65;100989.21;105194;1303;74813;-80
2022/06/27 01:49:26;;;;;;;;;;;;;;;26.55;45.84;100985.13;105250;1303;75805;-80
2022/06/27 01:51:52;;;;;;;;;;;;;;;26.55;45.63;100987.44;105209;1302;61638;-80
2022/06/27 01:54:18;;;;;;;;;;;;;;;26.55;45.70;100986.55;105129;1303;61292;-80
2022/06/27 01:56:47;;;;;;;;;;;;;;;26.54;45.50;100984.78;105130;1302;61379;-80
2022/06/27 01:59:13;;;;;;;;;;;;;;;26.54;45.80;100987.33;105168;1303;75594;-81
2022/06/27 02:01:39;;;;;;;;;;;;;;;26.54;45.62;100989.68;105183;1303;61284;-83
2022/06/27 02:04:05;;;;;;;;;;;;;;;26.54;45.58;100992.77;105302;1301;61343;-83
2022/06/27 02:06:30;;;;;;;;;;;;;;;26.54;45.78;100997.65;105166;1303;61204;-81
2022/06/27 02:08:57;;;;;;;;;;;;;;;26.54;45.82;100997.46;105115;1301;61755;-80
2022/06/27 02:11:22;;;;;;;;;;;;;;;26.53;45.72;100995.16;105237;1303;62329;-80
2022/06/27 02:13:47;;;;;;;;;;;;;;;26.53;45.89;100996.23;105202;1302;61284;-80
2022/06/27 02:16:18;;;;;;;;;;;;;;;26.53;45.81;100993.02;105165;1303;61278;-81
2022/06/27 02:18:44;;;;;;;;;;;;;;;26.53;45.68;100990.48;105206;1303;74718;-80
2022/06/27 02:21:10;;;;;;;;;;;;;;;26.53;45.86;100991.98;105180;1303;61426;-80
2022/06/27 02:23:36;;;;;;;;;;;;;;;26.53;45.81;100991.27;105190;1302;61811;-80
2022/06/27 02:26:01;;;;;;;;;;;;;;;26.53;45.83;100991.27;105184;1302;61268;-80
2022/06/27 02:28:27;;;;;;;;;;;;;;;26.53;45.84;100998.33;105203;1302;61281;-80
2022/06/27 02:30:53;;;;;;;;;;;;;;;26.53;45.77;100998.13;105153;1302;61285;-80
2022/06/27 02:33:20;;;;;;;;;;;;;;;26.52;45.85;100996.54;105300;1302;61358;-80
2022/06/27 02:35:45;;;;;;;;;;;;;;;26.53;45.98;101001.34;105180;1303;61381;-80
2022/06/27 02:38:11;;;;;;;;;;;;;;;26.52;45.83;101000.33;105159;1302;61160;-80
2022/06/27 02:40:37;;;;;;;;;;;;;;;26.52;45.96;101005.23;105177;1302;61323;-80
2022/06/27 02:43:02;;;;;;;;;;;;;;;26.53;45.87;101005.54;104931;1303;61475;-80
2022/06/27 02:45:30;;;;;;;;;;;;;;;26.52;46.00;101010.61;105160;1303;61403;-80
2022/06/27 02:47:57;;;;;;;;;;;;;;;26.52;46.13;101012.98;105259;1303;61655;-80
2022/06/27 02:50:23;;;;;;;;;;;;;;;26.52;45.90;101014.80;105256;1303;61269;-80
2022/06/27 02:52:48;;;;;;;;;;;;;;;26.52;45.90;101017.86;105145;1303;61400;-80
2022/06/27 02:55:15;;;;;;;;;;;;;;;26.52;46.12;101017.70;104976;1303;62082;-80
2022/06/27 02:58:10;;;;;;;;;;;;;;;26.52;46.18;101020.24;105151;1302;61144;-80
2022/06/27 03:00:38;;;;;;;;;;;;;;;26.52;45.92;101021.84;104652;1307;73593;-81
2022/06/27 03:03:03;;;;;;;;;;;;;;;26.52;46.20;101022.73;104530;1309;76952;-81
2022/06/27 03:05:29;;;;;;;;;;;;;;;26.52;45.98;101022.21;104547;1308;61307;-80
2022/06/27 03:07:54;;;;;;;;;;;;;;;26.52;46.03;101022.02;104619;1309;61349;-80
2022/06/27 03:10:20;;;;;;;;;;;;;;;26.52;45.88;101026.14;104633;1306;61304;-80
2022/06/27 03:12:45;;;;;;;;;;;;;;;26.52;45.87;101024.52;104530;1308;61301;-80
2022/06/27 03:15:11;;;;;;;;;;;;;;;26.52;45.98;101029.02;104628;1308;75694;-80
2022/06/27 03:17:36;;;;;;;;;;;;;;;26.52;45.94;101031.91;104504;1309;61251;-80
2022/06/27 03:20:02;;;;;;;;;;;;;;;26.51;45.95;101036.39;104581;1306;61277;-80
2022/06/27 03:22:27;;;;;;;;;;;;;;;26.48;45.91;101039.69;104495;1308;61296;-80
2022/06/27 03:24:53;;;;;;;;;;;;;;;26.47;45.83;101042.86;104577;1309;61236;-80
2022/06/27 03:27:19;;;;;;;;;;;;;;;26.46;45.67;101041.38;104626;1307;61288;-80
2022/06/27 03:29:45;;;;;;;;;;;;;;;26.45;45.73;101039.83;104533;1309;61473;-80
2022/06/27 03:32:10;;;;;;;;;;;;;;;26.43;45.56;101041.74;104593;1309;62402;-80
2022/06/27 03:34:35;;;;;;;;;;;;;;;26.42;45.73;101043.67;104461;1309;61569;-80
2022/06/27 03:37:01;;;;;;;;;;;;;;;26.40;45.51;101041.64;104715;1302;61296;-80
2022/06/27 03:39:27;;;;;;;;;;;;;;;26.39;45.52;101043.73;105047;1302;61284;-80
2022/06/27 03:41:52;;;;;;;;;;;;;;;26.38;45.46;101043.90;105153;1303;61362;-80
2022/06/27 03:44:17;;;;;;;;;;;;;;;26.36;45.39;101043.13;105176;1302;61339;-80
2022/06/27 03:46:43;;;;;;;;;;;;;;;26.35;45.38;101045.73;105180;1303;61257;-80
2022/06/27 03:51:53;;;;;;;;;;;;;;;26.34;45.24;101053.99;105238;1303;61169;-80
2022/06/27 03:54:19;;;;;;;;;;;;;;;26.32;45.23;101056.28;105145;1302;61176;-80
2022/06/27 03:56:44;;;;;;;;;;;;;;;26.31;45.19;101062.70;105167;1303;61269;-80
2022/06/27 03:59:10;;;;;;;;;;;;;;;26.29;45.11;101069.91;105258;1301;61271;-80
2022/06/27 04:01:35;;;;;;;;;;;;;;;26.28;45.15;101069.64;105173;1302;61266;-80
2022/06/27 04:04:01;;;;;;;;;;;;;;;26.26;45.09;101070.72;105183;1302;61428;-80
2022/06/27 04:06:27;;;;;;;;;;;;;;;26.24;44.91;101070.15;105174;1303;61413;-80
2022/06/27 04:08:53;;;;;;;;;;;;;;;26.24;44.95;101072.20;105234;1303;61307;-81
2022/06/27 04:11:19;;;;;;;;;;;;;;;26.24;44.85;101073.45;105240;1303;61284;-80
2022/06/27 04:13:44;;;;;;;;;;;;;;;26.24;44.86;101070.23;105157;1303;63181;-80
2022/06/27 04:16:10;;;;;;;;;;;;;;;26.23;44.92;101072.77;105135;1303;61384;-82
2022/06/27 04:18:35;;;;;;;;;;;;;;;26.23;44.68;101072.05;105190;1302;61326;-82
2022/06/27 04:21:01;;;;;;;;;;;;;;;26.23;44.78;101070.63;105268;1303;71528;-83
2022/06/27 04:23:26;;;;;;;;;;;;;;;26.23;44.85;101070.60;105230;1303;61253;-83
2022/06/27 04:25:52;;;;;;;;;;;;;;;26.24;44.85;101066.56;105180;1303;61269;-83
2022/06/27 04:28:18;;;;;;;;;;;;;;;26.24;44.69;101068.17;105162;1303;61304;-83
2022/06/27 04:30:44;;;;;;;;;;;;;;;26.24;44.49;101069.23;105253;1303;61956;-83
2022/06/27 04:33:10;;;;;;;;;;;;;;;26.25;44.32;101073.48;105299;1302;61173;-83
2022/06/27 04:35:36;;;;;;;;;;;;;;;26.26;44.39;101072.02;105226;1303;61303;-83
2022/06/27 04:38:02;;;;;;;;;;;;;;;26.26;44.35;101070.52;105258;1302;61125;-83
2022/06/27 04:40:27;;;;;;;;;;;;;;;26.26;44.21;101074.48;105257;1303;61297;-83
2022/06/27 04:42:53;;;;;;;;;;;;;;;26.27;44.44;101071.38;105252;1303;61714;-83
2022/06/27 04:45:19;;;;;;;;;;;;;;;26.28;44.32;101075.45;105158;1303;61981;-83
2022/06/27 04:47:45;;;;;;;;;;;;;;;26.28;44.28;101074.88;105196;1303;61345;-83
2022/06/27 04:50:12;;;;;;;;;;;;;;;26.27;44.25;101072.09;105164;1303;61233;-83
2022/06/27 04:52:38;;;;;;;;;;;;;;;26.27;43.93;101073.70;105211;1303;61301;-84
2022/06/27 04:55:08;;;;;;;;;;;;;;;26.28;43.81;101077.76;105131;1302;61383;-83
2022/06/27 04:57:36;;;;;;;;;;;;;;;26.28;44.07;101074.91;105175;1303;61289;-83
2022/06/27 05:00:07;;;;;;;;;;;;;;;26.28;43.97;101078.33;104976;1303;61368;-83
2022/06/27 05:02:33;;;;;;;;;;;;;;;26.29;43.94;101074.45;105251;1303;72575;-83
2022/06/27 05:04:58;;;;;;;;;;;;;;;26.31;43.93;101077.38;105266;1301;61239;-83
2022/06/27 05:07:24;;;;;;;;;;;;;;;26.32;43.84;101076.75;105290;1302;61272;-83
2022/06/27 05:09:52;;;;;;;;;;;;;;;26.33;43.73;101077.18;105142;1303;61432;-83
2022/06/27 05:12:19;;;;;;;;;;;;;;;26.34;43.62;101080.35;105141;1302;61269;-83
2022/06/27 05:14:45;;;;;;;;;;;;;;;26.35;43.64;101080.40;105151;1301;61419;-83
2022/06/27 05:17:10;;;;;;;;;;;;;;;26.36;43.64;101080.15;105132;1303;61327;-83
2022/06/27 05:19:36;;;;;;;;;;;;;;;26.32;43.67;101079.64;105282;1302;61444;-83
2022/06/27 05:22:01;;;;;;;;;;;;;;;26.23;43.42;101078.20;105188;1303;61250;-83
2022/06/27 05:24:27;;;;;;;;;;;;;;;26.17;43.64;101074.09;105152;1303;74003;-83
2022/06/27 05:26:54;;;;;;;;;;;;;;;26.16;43.49;101075.77;105257;1301;61214;-83
2022/06/27 05:29:20;;;;;;;;;;;;;;;26.17;43.67;101078.52;105185;1303;61141;-83
2022/06/27 05:31:46;;;;;;;;;;;;;;;26.20;43.43;101078.62;105186;1302;61131;-83
2022/06/27 05:34:11;;;;;;;;;;;;;;;26.23;43.58;101084.84;105255;1303;61374;-83
2022/06/27 05:36:37;;;;;;;;;;;;;;;26.26;43.41;101085.91;105175;1301;61263;-83
2022/06/27 05:39:03;;;;;;;;;;;;;;;26.27;43.41;101081.66;105267;1302;61397;-83
2022/06/27 05:41:29;;;;;;;;;;;;;;;26.29;43.59;101085.80;105148;1303;61606;-83
2022/06/27 05:43:55;;;;;;;;;;;;;;;26.30;43.37;101089.89;105011;1302;61419;-83
2022/06/27 05:46:21;;;;;;;;;;;;;;;26.30;43.45;101094.95;105015;1302;61309;-83
2022/06/27 05:48:46;;;;;;;;;;;;;;;26.30;43.30;101097.97;105130;1302;61631;-81
2022/06/27 05:51:12;;;;;;;;;;;;;;;26.32;43.32;101097.48;104951;1302;61262;-80
2022/06/27 05:53:38;;;;;;;;;;;;;;;26.33;43.29;101101.48;105126;1301;61243;-80
2022/06/27 05:56:05;;;;;;;;;;;;;;;26.34;43.46;101097.10;104948;1303;61275;-81
2022/06/27 05:58:31;;;;;;;;;;;;;;;26.34;43.26;101093.45;104900;1302;61312;-81
2022/06/27 06:00:58;;;;;;;;;;;;;;;26.35;43.22;101098.23;105109;1302;74833;-81
2022/06/27 06:03:24;;;;;;;;;;;;;;;26.38;43.23;101094.61;105146;1302;61148;-81
2022/06/27 06:05:49;;;;;;;;;;;;;;;26.39;43.23;101095.19;105120;1302;61312;-81
2022/06/27 06:08:15;;;;;;;;;;;;;;;26.40;43.27;101096.19;105020;1302;79172;-81
2022/06/27 06:10:41;;;;;;;;;;;;;;;26.41;43.25;101099.55;104988;1302;61376;-81
2022/06/27 06:13:06;;;;;;;;;;;;;;;26.39;43.21;101099.49;105141;1302;61295;-81
2022/06/27 06:15:32;;;;;;;;;;;;;;;26.38;43.33;101100.39;105010;1302;61281;-80
2022/06/27 06:18:01;;;;;;;;;;;;;;;26.36;43.22;101104.28;105021;1302;61253;-81
2022/06/27 06:20:27;;;;;;;;;;;;;;;26.34;43.19;101104.53;104973;1302;73656;-81
2022/06/27 06:22:52;;;;;;;;;;;;;;;26.33;43.23;101105.84;105012;1302;62202;-81
2022/06/27 06:25:18;;;;;;;;;;;;;;;26.34;43.24;101102.88;105120;1302;61345;-81
2022/06/27 06:27:45;;;;;;;;;;;;;;;26.35;43.24;101100.09;104148;1301;1163617;-81
2022/06/27 06:30:10;;;;;;;;;;;;;;;26.36;43.07;101100.02;105152;1301;61192;-81
2022/06/27 06:32:36;;;;;;;;;;;;;;;26.36;43.04;101099.96;105061;1302;61373;-81
2022/06/27 06:35:02;;;;;;;;;;;;;;;26.37;43.27;101102.44;104781;1302;61290;-81
2022/06/27 06:37:29;;;;;;;;;;;;;;;26.37;43.16;101101.12;104802;1302;61233;-81
2022/06/27 06:39:54;;;;;;;;;;;;;;;26.36;43.08;101099.46;104933;1302;61275;-81
2022/06/27 06:42:20;;;;;;;;;;;;;;;26.33;42.93;101101.10;105141;1302;61224;-81
2022/06/27 06:44:46;;;;;;;;;;;;;;;26.31;42.98;101100.93;105018;1302;61242;-81
2022/06/27 06:47:12;;;;;;;;;;;;;;;26.30;43.02;101099.45;104977;1303;61293;-81
2022/06/27 06:49:40;;;;;;;;;;;;;;;26.30;43.10;101108.05;105137;1301;61203;-81
2022/06/27 06:52:06;;;;;;;;;;;;;;;26.32;42.86;101108.65;105096;1302;71433;-81
2022/06/27 06:54:31;;;;;;;;;;;;;;;26.33;42.97;101110.88;104949;1303;61342;-81
2022/06/27 06:56:58;;;;;;;;;;;;;;;26.35;43.06;101110.38;105019;1303;61277;-81
2022/06/27 06:59:23;;;;;;;;;;;;;;;26.36;42.98;101110.39;104727;1302;61236;-81
2022/06/27 07:01:50;;;;;;;;;;;;;;;26.37;43.02;101112.09;104888;1303;61708;-81
2022/06/27 07:04:16;;;;;;;;;;;;;;;26.39;42.97;101109.11;105186;1302;61293;-81
2022/06/27 07:06:42;;;;;;;;;;;;;;;26.41;42.93;101111.91;104952;1303;61261;-81
2022/06/27 07:09:08;;;;;;;;;;;;;;;26.43;42.84;101111.23;104953;1303;61300;-81
2022/06/27 07:11:36;;;;;;;;;;;;;;;26.44;42.89;101108.61;104730;1303;61350;-81
2022/06/27 07:14:01;;;;;;;;;;;;;;;26.46;42.76;101108.13;104908;1302;61355;-81
2022/06/27 07:16:27;;;;;;;;;;;;;;;26.47;42.83;101107.28;105039;1302;61261;-81
2022/06/27 07:18:54;;;;;;;;;;;;;;;26.49;43.07;101108.17;104918;1302;61312;-81
2022/06/27 07:21:19;;;;;;;;;;;;;;;26.51;42.83;101108.00;104919;1302;61254;-81
2022/06/27 07:23:46;;;;;;;;;;;;;;;26.51;42.84;101108.88;104890;1301;61374;-81
2022/06/27 07:26:12;;;;;;;;;;;;;;;26.53;42.80;101110.70;105164;1301;61203;-81
2022/06/27 07:28:38;;;;;;;;;;;;;;;26.54;42.57;101109.36;105214;1303;61305;-81
2022/06/27 07:31:08;;;;;;;;;;;;;;;26.54;42.59;101107.54;105097;1301;61262;-81
2022/06/27 07:33:36;;;;;;;;;;;;;;;26.54;42.64;101107.36;105010;1302;72935;-81
2022/06/27 07:36:02;;;;;;;;;;;;;;;26.55;42.80;101106.35;105155;1302;75741;-81
2022/06/27 07:38:27;;;;;;;;;;;;;;;26.57;42.81;101109.10;105198;1301;61222;-81
2022/06/27 07:40:52;;;;;;;;;;;;;;;26.58;42.83;101102.55;105024;1301;61369;-81
2022/06/27 07:43:18;;;;;;;;;;;;;;;26.57;42.57;101104.74;105128;1302;61218;-82
2022/06/27 07:45:44;;;;;;;;;;;;;;;26.57;42.66;101109.48;105129;1303;61263;-82
2022/06/27 07:48:10;;;;;;;;;;;;;;;26.56;42.69;101107.73;105098;1302;75638;-82
2022/06/27 07:50:39;;;;;;;;;;;;;;;26.56;42.52;101107.95;105167;1301;61831;-82
2022/06/27 07:53:13;;;;;;;;;;;;;;;26.55;42.56;101103.66;104858;1302;61243;-82
2022/06/27 07:55:40;;;;;;;;;;;;;;;26.56;42.64;101097.08;104741;1302;72804;-81
2022/06/27 07:58:07;;;;;;;;;;;;;;;26.57;42.68;101098.07;104880;1302;74710;-82
2022/06/27 08:00:33;;;;;;;;;;;;;;;26.58;42.32;101099.45;105278;1300;61148;-82
2022/06/27 08:03:36;;;;;;;;;;;;;;;26.59;42.37;101096.45;104979;1301;61177;-82
2022/06/27 08:05:45;;;;;;;;;;;;;;;26.62;42.52;101094.98;104911;1302;73695;-82
2022/06/27 08:08:10;;;;;;;;;;;;;;;26.64;42.51;101093.36;105075;1302;62612;-81
2022/06/27 08:10:36;;;;;;;;;;;;;;;26.66;42.54;101092.83;105098;1301;61282;-81
2022/06/27 08:13:01;;;;;;;;;;;;;;;26.67;42.72;101088.55;104888;1302;61352;-81
2022/06/27 08:15:27;;;;;;;;;;;;;;;26.67;42.62;101086.88;105261;1301;61229;-81
2022/06/27 08:17:53;;;;;;;;;;;;;;;26.68;42.50;101088.46;105108;1302;72861;-81
2022/06/27 08:20:19;;;;;;;;;;;;;;;26.68;42.38;101083.94;105093;1302;61220;-81
2022/06/27 08:22:45;;;;;;;;;;;;;;;26.68;42.48;101077.58;105043;1302;61249;-81
2022/06/27 08:25:10;;;;;;;;;;;;;;;26.69;42.66;101079.35;105151;1302;59816;-82
2022/06/27 08:27:37;;;;;;;;;;;;;;;26.69;42.63;101077.00;105056;1302;61377;-82
2022/06/27 08:30:03;;;;;;;;;;;;;;;26.69;42.50;101078.77;105095;1302;61321;-81
2022/06/27 08:32:28;;;;;;;;;;;;;;;26.69;42.57;101076.75;105061;1303;61245;-81
2022/06/27 08:34:55;;;;;;;;;;;;;;;26.69;42.40;101074.95;104894;1302;61265;-81
2022/06/27 08:37:23;;;;;;;;;;;;;;;26.70;42.45;101074.19;105062;1302;61327;-82
2022/06/27 08:39:48;;;;;;;;;;;;;;;26.70;42.31;101073.32;104857;1303;73889;-82
2022/06/27 08:42:14;;;;;;;;;;;;;;;26.69;42.50;101074.96;105030;1302;61313;-81
2022/06/27 08:44:39;;;;;;;;;;;;;;;26.70;42.49;101078.02;105143;1302;61263;-82
2022/06/27 08:47:06;;;;;;;;;;;;;;;26.69;42.39;101074.81;105016;1303;61368;-81
2022/06/27 08:49:32;;;;;;;;;;;;;;;26.68;42.39;101077.02;104879;1303;61334;-81
2022/06/27 08:51:58;;;;;;;;;;;;;;;26.68;42.43;101074.49;104911;1302;61381;-82
2022/06/27 08:54:26;;;;;;;;;;;;;;;26.70;42.42;101065.54;104915;1301;61323;-82
2022/06/27 08:56:53;;;;;;;;;;;;;;;26.71;42.61;101061.98;104974;1302;61316;-82
2022/06/27 08:59:18;;;;;;;;;;;;;;;26.72;42.39;101060.86;105035;1302;71445;-82
2022/06/27 09:01:45;;;;;;;;;;;;;;;26.72;42.43;101063.33;104997;1303;61616;-82
2022/06/27 09:04:11;;;;;;;;;;;;;;;26.72;42.41;101060.09;105002;1303;61280;-82
2022/06/27 09:06:43;;;;;;;;;;;;;;;26.72;42.42;101057.55;105183;1302;61137;-81
2022/06/27 09:09:09;;;;;;;;;;;;;;;26.72;42.39;101063.00;105154;1301;74007;-83
2022/06/27 09:11:36;;;;;;;;;;;;;;;26.73;42.38;101066.39;105167;1302;61268;-82
2022/06/27 09:14:02;;;;;;;;;;;;;;;26.73;42.29;101062.94;105097;1303;61250;-84
2022/06/27 09:16:27;;;;;;;;;;;;;;;26.72;41.86;101051.05;105081;1302;61365;-83
2022/06/27 09:18:55;;;;;;;;;;;;;;;26.72;42.13;101057.98;105166;1302;61265;-84
2022/06/27 09:21:21;;;;;;;;;;;;;;;26.72;41.76;101049.12;104914;1302;61394;-84
2022/06/27 09:23:58;;;;;;;;;;;;;;;26.72;41.79;101046.95;105272;1303;61263;-84
2022/06/27 09:26:28;;;;;;;;;;;;;;;26.72;41.80;101043.49;105136;1301;61292;-82
2022/06/27 09:29:02;;;;;;;;;;;;;;;26.72;41.72;101052.02;105140;1302;72926;-82
2022/06/27 09:31:31;;;;;;;;;;;;;;;26.72;41.58;101049.27;104974;1301;61313;-81
2022/06/27 09:34:01;;;;;;;;;;;;;;;26.72;41.75;101045.35;104997;1302;61295;-81
2022/06/27 09:36:26;;;;;;;;;;;;;;;26.71;41.78;101044.64;104996;1302;61150;-82
2022/06/27 09:38:52;;;;;;;;;;;;;;;26.72;41.49;101042.45;104941;1302;61268;-82
2022/06/27 09:41:18;;;;;;;;;;;;;;;26.71;41.54;101042.88;105043;1302;61333;-82
2022/06/27 09:43:46;;;;;;;;;;;;;;;26.71;41.36;101039.60;104967;1302;61364;-82
2022/06/27 09:46:13;;;;;;;;;;;;;;;26.72;41.42;101038.33;104954;1300;61247;-83
2022/06/27 09:48:40;;;;;;;;;;;;;;;26.71;41.55;101033.29;104880;1302;61247;-83
2022/06/27 09:51:06;;;;;;;;;;;;;;;26.72;41.26;101033.96;104935;1302;74892;-82
2022/06/27 09:53:31;;;;;;;;;;;;;;;26.72;41.34;101035.89;104931;1302;61392;-83
2022/06/27 09:55:58;;;;;;;;;;;;;;;26.73;41.31;101032.64;104923;1302;61352;-82
2022/06/27 09:58:25;;;;;;;;;;;;;;;26.72;41.39;101034.46;104901;1301;61316;-82
2022/06/27 10:00:50;;;;;;;;;;;;;;;26.73;41.20;101034.78;105153;1302;61253;-82
2022/06/27 10:03:16;;;;;;;;;;;;;;;26.73;41.31;101033.83;105007;1302;61392;-82
2022/06/27 10:05:43;;;;;;;;;;;;;;;26.74;41.22;101034.12;105021;1302;61301;-82
2022/06/27 10:08:08;;;;;;;;;;;;;;;26.74;41.24;101026.56;104921;1302;61368;-82
2022/06/27 10:10:53;;;;;;;;;;;;;;;26.74;41.05;101030.33;105262;1303;61345;-82
2022/06/27 10:13:19;;;;;;;;;;;;;;;26.74;40.95;101036.13;105213;1303;74722;-82
2022/06/27 10:15:45;;;;;;;;;;;;;;;26.74;40.95;101031.04;104977;1302;61457;-82
2022/06/27 10:18:10;;;;;;;;;;;;;;;26.74;40.97;101029.98;105266;1302;61408;-82
2022/06/27 10:20:36;;;;;;;;;;;;;;;26.73;40.42;101032.20;105171;1302;61355;-82
2022/06/27 10:23:37;;;;;;;;;;;;;;;26.74;40.43;101026.77;104928;1303;61160;-82
2022/06/27 10:26:03;;;;;;;;;;;;;;;26.73;40.44;101027.02;104527;1308;61278;-82
2022/06/27 10:28:28;;;;;;;;;;;;;;;26.74;40.39;101030.02;104506;1308;61317;-82
2022/06/27 10:30:59;;;;;;;;;;;;;;;26.74;40.35;101023.31;104451;1308;62083;-82
2022/06/27 10:33:25;;;;;;;;;;;;;;;26.73;40.30;101017.17;104429;1308;74229;-82
2022/06/27 10:38:22;;;;;;;;;;;;;;;26.76;40.08;101013.20;104510;1308;61203;-82
2022/06/27 10:40:48;;;;;;;;;;;;;;;26.75;40.03;101011.23;104485;1308;61263;-82
2022/06/27 10:43:32;;;;;;;;;;;;;;;26.76;40.02;101013.73;104241;1308;61531;-82
2022/06/27 10:45:58;;;;;;;;;;;;;;;26.75;40.10;101013.05;104477;1308;61751;-82
2022/06/27 10:48:33;;;;;;;;;;;;;;;26.76;40.16;100994.56;104451;1308;61233;-82
2022/06/27 10:51:02;;;;;;;;;;;;;;;26.76;40.07;101001.05;104462;1308;72910;-82
2022/06/27 10:53:29;;;;;;;;;;;;;;;26.76;40.24;100994.36;104451;1308;75690;-82
2022/06/27 10:55:54;;;;;;;;;;;;;;;26.76;40.08;100985.70;104490;1308;61368;-82
2022/06/27 10:58:20;;;;;;;;;;;;;;;26.77;39.94;100982.75;104416;1308;61265;-82
2022/06/27 11:00:46;;;;;;;;;;;;;;;26.78;39.96;100979.82;104377;1311;61305;-82
2022/06/27 11:03:20;;;;;;;;;;;;;;;26.78;39.82;100973.14;104744;1302;61283;-82
2022/06/27 11:05:53;;;;;;;;;;;;;;;26.78;40.10;100971.14;105104;1303;61229;-82
2022/06/27 11:08:22;;;;;;;;;;;;;;;26.78;39.91;100968.41;104768;1302;61143;-82
2022/06/27 11:10:48;;;;;;;;;;;;;;;26.78;40.05;100970.63;105053;1302;74800;-82
2022/06/27 11:13:32;;;;;;;;;;;;;;;26.78;39.88;100966.64;105103;1301;61291;-82
2022/06/27 11:15:58;;;;;;;;;;;;;;;26.78;39.78;100967.19;105147;1301;61835;-81
2022/06/27 11:18:23;;;;;;;;;;;;;;;26.78;40.02;100972.25;105184;1302;61303;-81
2022/06/27 11:20:49;;;;;;;;;;;;;;;26.78;40.11;100968.23;105085;1301;61282;-81
2022/06/27 11:23:14;;;;;;;;;;;;;;;26.79;39.94;100960.35;105210;1301;61253;-81
2022/06/27 11:25:41;;;;;;;;;;;;;;;26.80;39.85;100957.93;105289;1302;61493;-81
2022/06/27 11:33:36;;;;;;;;;;;;;;;26.84;39.61;100957.20;105232;1303;71975;-82
2022/06/27 11:36:02;;;;;;;;;;;;;;;26.85;39.68;100959.48;105235;1303;61125;-82
2022/06/27 11:38:29;;;;;;;;;;;;;;;26.86;39.70;100958.13;105157;1301;61346;-82
2022/06/27 11:40:58;;;;;;;;;;;;;;;26.86;39.64;100959.54;105130;1303;62566;-81
2022/06/27 11:43:44;;;;;;;;;;;;;;;26.85;39.83;100959.05;105132;1302;71779;-82
2022/06/27 11:46:19;;;;;;;;;;;;;;;26.87;39.50;100957.10;105217;1302;76735;-82
2022/06/27 11:48:59;;;;;;;;;;;;;;;26.88;39.77;100948.36;105136;1301;61403;-82
2022/06/27 11:51:26;;;;;;;;;;;;;;;26.88;39.62;100943.25;105041;1302;61265;-82
2022/06/27 11:53:52;;;;;;;;;;;;;;;26.89;39.81;100946.45;105119;1301;72789;-82
2022/06/27 11:56:25;;;;;;;;;;;;;;;26.89;39.48;100938.46;105214;1303;61225;-81
2022/06/27 11:58:52;;;;;;;;;;;;;;;26.89;39.87;100943.69;105238;1303;61239;-81
2022/06/27 12:01:18;;;;;;;;;;;;;;;26.91;39.82;100936.52;105252;1301;61266;-81
2022/06/27 12:04:02;;;;;;;;;;;;;;;26.90;39.76;100933.46;105244;1302;61243;-81
2022/06/27 12:06:31;;;;;;;;;;;;;;;26.91;39.55;100933.27;105210;1303;74829;-81
2022/06/27 12:09:02;;;;;;;;;;;;;;;26.91;39.85;100925.27;105186;1302;61259;-81
2022/06/27 12:11:32;;;;;;;;;;;;;;;26.92;39.78;100924.14;105153;1303;61221;-81
2022/06/27 12:13:59;;;;;;;;;;;;;;;26.91;39.70;100916.41;105144;1302;72812;-81
2022/06/27 12:16:25;;;;;;;;;;;;;;;26.92;39.92;100917.82;105220;1301;61237;-81
2022/06/27 12:18:51;;;;;;;;;;;;;;;26.92;40.01;100922.86;105167;1302;61380;-81
2022/06/27 12:21:17;;;;;;;;;;;;;;;26.92;40.21;100921.94;105238;1302;61170;-81
2022/06/27 12:23:42;;;;;;;;;;;;;;;26.93;40.24;100922.36;105072;1303;62220;-81
2022/06/27 12:26:09;;;;;;;;;;;;;;;26.93;40.37;100919.84;105138;1302;61258;-81
2022/06/27 12:28:35;;;;;;;;;;;;;;;26.94;40.52;100923.23;105257;1303;61230;-82
2022/06/27 12:31:01;;;;;;;;;;;;;;;26.94;40.53;100918.15;105134;1301;61276;-83
2022/06/27 12:33:27;;;;;;;;;;;;;;;26.95;40.77;100912.51;105189;1302;61269;-82
2022/06/27 12:35:53;;;;;;;;;;;;;;;26.95;40.79;100914.27;105152;1301;73798;-82